Time;durP1;ratioP1;P1;durP2;ratioP2;P2;SDS_P1;SDS_P2;PMS_P1;PMS_P2;Temp;Humidity;BMP_temperature;BMP_pressure;BME280_temperature;BME280_humidity;BME280_pressure;Samples;Min_cycle;Max_cycle;Signal;HPM_P1;HPM_P2
2022/05/15 00:02:29;;;;;;;0.50;0.50;;;21.60;56.00;;;;;;4957254;28;20046;-16
2022/05/15 00:04:55;;;;;;;0.80;0.70;;;21.60;56.00;;;;;;4963210;28;20047;-15
2022/05/15 00:07:21;;;;;;;0.60;0.50;;;21.70;56.00;;;;;;4976107;28;20042;-16
2022/05/15 00:09:46;;;;;;;1.05;0.75;;;21.70;56.00;;;;;;4976874;28;20047;-15
2022/05/15 00:12:12;;;;;;;1.25;0.70;;;21.60;56.00;;;;;;4976051;28;20039;-16
2022/05/15 00:14:38;;;;;;;0.70;0.70;;;21.70;56.00;;;;;;4976669;28;20050;-15
2022/05/15 00:17:04;;;;;;;0.88;0.80;;;21.60;55.90;;;;;;4976222;28;20085;-15
2022/05/15 00:19:29;;;;;;;1.20;0.65;;;21.70;55.90;;;;;;4974892;28;20043;-15
2022/05/15 00:21:55;;;;;;;0.88;0.70;;;21.60;55.90;;;;;;4957379;28;20049;-15
2022/05/15 00:24:20;;;;;;;0.70;0.70;;;21.60;55.90;;;;;;4965487;28;20665;-15
2022/05/15 00:26:46;;;;;;;0.50;0.50;;;21.70;55.80;;;;;;4975803;28;20145;-15
2022/05/15 00:29:12;;;;;;;0.60;0.60;;;21.60;55.80;;;;;;4975901;28;20488;-15
2022/05/15 00:31:37;;;;;;;0.50;0.50;;;21.60;55.80;;;;;;4976587;28;20074;-15
2022/05/15 00:34:03;;;;;;;1.17;0.68;;;21.60;55.80;;;;;;4974213;28;20112;-16
2022/05/15 00:36:29;;;;;;;0.50;0.50;;;21.60;55.80;;;;;;4976572;28;20039;-15
2022/05/15 00:38:55;;;;;;;0.55;0.55;;;21.60;55.80;;;;;;4976361;28;20133;-14
2022/05/15 00:41:20;;;;;;;0.55;0.55;;;21.60;55.80;;;;;;4975700;28;20070;-15
2022/05/15 00:43:51;;;;;;;0.60;0.60;;;21.60;55.80;;;;;;4974668;28;20050;-15
2022/05/15 00:46:19;;;;;;;0.50;0.50;;;21.60;55.80;;;;;;4975261;28;20421;-15
2022/05/15 00:48:46;;;;;;;0.40;0.40;;;21.60;55.80;;;;;;4976452;28;20579;-14
2022/05/15 00:51:16;;;;;;;0.65;0.65;;;21.60;55.70;;;;;;4977592;28;20085;-15
2022/05/15 00:53:42;;;;;;;0.60;0.60;;;21.60;55.80;;;;;;4962494;28;20066;-15
2022/05/15 00:56:07;;;;;;;0.90;0.90;;;21.60;55.70;;;;;;4979532;28;20047;-15
2022/05/15 00:58:41;;;;;;;0.63;0.63;;;21.60;55.70;;;;;;4978486;28;20055;-15
2022/05/15 01:01:06;;;;;;;0.70;0.70;;;21.60;55.80;;;;;;4979788;28;20129;-15
2022/05/15 01:03:32;;;;;;;0.40;0.40;;;21.60;55.70;;;;;;4980151;28;20078;-15
2022/05/15 01:05:58;;;;;;;0.60;0.60;;;21.60;55.70;;;;;;4972356;28;20043;-15
2022/05/15 01:08:27;;;;;;;0.68;0.50;;;21.60;55.80;;;;;;4960007;28;20050;-15
2022/05/15 01:10:54;;;;;;;0.65;0.47;;;21.60;55.70;;;;;;4979666;28;20066;-15
2022/05/15 01:13:21;;;;;;;0.38;0.38;;;21.60;55.70;;;;;;4978829;28;20047;-15
2022/05/15 01:15:48;;;;;;;0.60;0.60;;;21.60;55.70;;;;;;4979849;28;20043;-15
2022/05/15 01:18:13;;;;;;;0.50;0.50;;;21.60;55.80;;;;;;4979349;28;20046;-15
2022/05/15 01:20:39;;;;;;;0.40;0.40;;;21.60;55.70;;;;;;4972602;28;20054;-15
2022/05/15 01:23:05;;;;;;;0.50;0.50;;;21.60;55.60;;;;;;4975114;28;20512;-16
2022/05/15 01:25:32;;;;;;;0.60;0.60;;;21.60;55.60;;;;;;4974984;28;20051;-15
2022/05/15 01:28:05;;;;;;;0.60;0.50;;;21.50;56.30;;;;;;4960415;28;20448;-15
2022/05/15 01:30:31;;;;;;;0.50;0.50;;;21.60;55.60;;;;;;4964967;28;20410;-15
2022/05/15 01:32:57;;;;;;;0.60;0.60;;;21.60;55.70;;;;;;4979799;28;20070;-16
2022/05/15 01:35:23;;;;;;;0.68;0.68;;;21.60;55.60;;;;;;4978378;28;20043;-15
2022/05/15 01:37:49;;;;;;;1.80;0.60;;;21.60;55.60;;;;;;4953356;28;20114;-15
2022/05/15 01:40:15;;;;;;;0.68;0.47;;;21.60;55.60;;;;;;4959746;28;20043;-15
2022/05/15 01:42:41;;;;;;;0.57;0.57;;;21.60;55.60;;;;;;4963010;28;20125;-15
2022/05/15 01:45:07;;;;;;;0.50;0.50;;;21.60;55.60;;;;;;4978882;28;20065;-15
2022/05/15 01:47:33;;;;;;;0.60;0.45;;;21.60;55.60;;;;;;4977200;28;20050;-15
2022/05/15 01:49:58;;;;;;;0.47;0.35;;;21.50;55.50;;;;;;4979427;28;20053;-15
2022/05/15 01:52:24;;;;;;;0.65;0.65;;;21.50;55.60;;;;;;4977945;28;20042;-15
2022/05/15 01:54:49;;;;;;;0.55;0.52;;;21.50;55.50;;;;;;4979338;28;20046;-16
2022/05/15 01:57:15;;;;;;;0.50;0.50;;;21.50;55.50;;;;;;4971795;28;20039;-15
2022/05/15 01:59:41;;;;;;;0.52;0.40;;;21.50;55.50;;;;;;4959940;28;20039;-15
2022/05/15 02:02:07;;;;;;;0.60;0.60;;;21.50;55.50;;;;;;4963392;28;20031;-15
2022/05/15 02:04:32;;;;;;;0.40;0.40;;;21.50;55.60;;;;;;4977818;28;20047;-15
2022/05/15 02:06:58;;;;;;;0.47;0.47;;;21.50;55.60;;;;;;4978873;28;20095;-15
2022/05/15 02:09:24;;;;;;;0.60;0.60;;;21.50;55.50;;;;;;4978398;28;20054;-15
2022/05/15 02:11:49;;;;;;;0.57;0.57;;;21.50;55.40;;;;;;4977586;28;20568;-15
2022/05/15 02:14:15;;;;;;;0.52;0.40;;;21.50;55.60;;;;;;4978326;28;20495;-15
2022/05/15 02:16:40;;;;;;;0.40;0.40;;;21.50;55.50;;;;;;4978635;28;20058;-16
2022/05/15 02:19:06;;;;;;;1.30;0.38;;;21.60;55.50;;;;;;4968967;28;20051;-14
2022/05/15 02:21:32;;;;;;;0.73;0.50;;;21.50;55.50;;;;;;4958797;28;20051;-15
2022/05/15 02:23:58;;;;;;;0.40;0.40;;;21.50;55.50;;;;;;4959104;28;20046;-15
2022/05/15 02:26:24;;;;;;;0.40;0.40;;;21.50;55.50;;;;;;4966612;28;20098;-15
2022/05/15 02:28:49;;;;;;;0.50;0.50;;;21.50;55.50;;;;;;4978665;28;20125;-15
2022/05/15 02:31:15;;;;;;;0.55;0.55;;;21.50;55.50;;;;;;4976016;28;20104;-15
2022/05/15 02:33:41;;;;;;;0.30;0.30;;;21.50;55.50;;;;;;4977355;28;20054;-15
2022/05/15 02:36:07;;;;;;;0.40;0.30;;;21.50;55.40;;;;;;4978570;28;20078;-15
2022/05/15 02:38:33;;;;;;;0.40;0.40;;;21.50;55.50;;;;;;4977876;28;20051;-15
2022/05/15 02:40:58;;;;;;;0.55;0.50;;;21.50;55.50;;;;;;4977532;28;20421;-15
2022/05/15 02:43:24;;;;;;;0.68;0.40;;;21.50;55.40;;;;;;4977323;28;20508;-15
2022/05/15 02:45:49;;;;;;;1.23;0.60;;;21.50;55.50;;;;;;4978349;28;20050;-16
2022/05/15 02:51:05;;;;;;;0.68;0.45;;;21.50;55.40;;;;;;4957961;28;20050;-15
2022/05/15 02:53:36;;;;;;;0.73;0.40;;;21.50;55.50;;;;;;4962153;28;20113;-15
2022/05/15 02:56:22;;;;;;;0.40;0.40;;;21.50;55.40;;;;;;4977930;28;20069;-16
2022/05/15 02:58:48;;;;;;;1.55;0.60;;;21.50;55.50;;;;;;4977831;28;20039;-15
2022/05/15 03:01:14;;;;;;;0.80;0.50;;;21.50;55.40;;;;;;4976191;28;20043;-16
2022/05/15 03:03:39;;;;;;;0.50;0.50;;;21.50;55.30;;;;;;4978083;28;20042;-15
2022/05/15 03:06:05;;;;;;;0.50;0.50;;;21.50;55.50;;;;;;4976664;28;20039;-15
2022/05/15 03:08:36;;;;;;;0.50;0.50;;;21.40;55.40;;;;;;4976410;28;20445;-15
2022/05/15 03:11:02;;;;;;;1.40;0.45;;;21.50;55.50;;;;;;4977836;28;20042;-15
2022/05/15 03:13:27;;;;;;;0.35;0.35;;;21.50;55.40;;;;;;4976334;28;20085;-15
2022/05/15 03:15:53;;;;;;;0.50;0.40;;;21.50;55.50;;;;;;4976861;28;20118;-17
2022/05/15 03:18:19;;;;;;;0.40;0.40;;;21.50;55.40;;;;;;4977115;28;20085;-17
2022/05/15 03:20:44;;;;;;;0.50;0.50;;;21.50;55.40;;;;;;4976325;28;20051;-15
2022/05/15 03:23:10;;;;;;;0.30;0.30;;;21.50;55.40;;;;;;4976573;28;20054;-16
2022/05/15 03:25:37;;;;;;;0.93;0.70;;;21.50;55.40;;;;;;4976162;28;20114;-15
2022/05/15 03:28:09;;;;;;;0.40;0.40;;;21.40;55.40;;;;;;4974640;28;20035;-15
2022/05/15 03:30:38;;;;;;;0.68;0.50;;;21.50;55.40;;;;;;4975007;28;20078;-15
2022/05/15 03:33:03;;;;;;;0.45;0.30;;;21.50;55.40;;;;;;4958257;28;20039;-15
2022/05/15 03:35:29;;;;;;;0.50;0.50;;;21.50;55.40;;;;;;4986925;28;20043;-15
2022/05/15 03:37:55;;;;;;;0.40;0.40;;;21.50;55.40;;;;;;4960412;28;20047;-16
2022/05/15 03:40:20;;;;;;;0.55;0.40;;;21.40;55.30;;;;;;4970488;28;20046;-16
2022/05/15 03:42:46;;;;;;;0.32;0.32;;;21.40;55.40;;;;;;4975409;28;20078;-17
2022/05/15 03:45:11;;;;;;;0.52;0.52;;;21.50;55.40;;;;;;4956764;28;20054;-16
2022/05/15 03:47:47;;;;;;;0.40;0.40;;;21.40;55.50;;;;;;4955957;28;20063;-16
2022/05/15 03:50:12;;;;;;;0.45;0.45;;;21.40;55.50;;;;;;4972307;28;20408;-16
2022/05/15 03:52:38;;;;;;;0.32;0.32;;;21.40;55.40;;;;;;4973630;28;20047;-16
2022/05/15 03:55:04;;;;;;;0.57;0.47;;;21.40;55.40;;;;;;4976204;28;20078;-16
2022/05/15 03:57:30;;;;;;;0.40;0.40;;;21.40;55.30;;;;;;4974909;28;20035;-16
2022/05/15 03:59:55;;;;;;;0.43;0.40;;;21.40;55.30;;;;;;4976935;28;20038;-17
2022/05/15 04:02:21;;;;;;;0.40;0.40;;;21.40;55.40;;;;;;4975201;28;20062;-16
2022/05/15 04:04:46;;;;;;;0.32;0.32;;;21.50;55.40;;;;;;4976973;28;20137;-16
2022/05/15 04:07:12;;;;;;;0.35;0.35;;;21.40;55.40;;;;;;4976945;28;20042;-16
2022/05/15 04:09:40;;;;;;;0.40;0.40;;;21.40;55.40;;;;;;4972990;28;20486;-15
2022/05/15 04:12:10;;;;;;;0.45;0.40;;;21.40;55.40;;;;;;4973177;28;20531;-16
2022/05/15 04:14:35;;;;;;;1.00;0.40;;;21.40;55.40;;;;;;4975072;28;20039;-16
2022/05/15 04:17:01;;;;;;;0.40;0.40;;;21.40;55.40;;;;;;4975705;28;20515;-16
2022/05/15 04:19:27;;;;;;;0.45;0.45;;;21.40;55.40;;;;;;4973722;28;20036;-15
2022/05/15 04:21:52;;;;;;;0.43;0.32;;;21.40;55.40;;;;;;4974139;28;20046;-16
2022/05/15 04:24:18;;;;;;;0.95;0.22;;;21.40;55.50;;;;;;4974979;28;20070;-16
2022/05/15 04:26:44;;;;;;;0.30;0.30;;;21.40;55.40;;;;;;4974418;28;20415;-16
2022/05/15 04:29:10;;;;;;;0.40;0.40;;;21.40;55.40;;;;;;4975428;28;20053;-16
2022/05/15 04:31:36;;;;;;;0.40;0.40;;;21.40;55.40;;;;;;4974758;28;20224;-16
2022/05/15 04:34:02;;;;;;;0.38;0.38;;;21.40;55.40;;;;;;4975057;28;20072;-16
2022/05/15 04:36:28;;;;;;;0.30;0.30;;;21.40;55.40;;;;;;4967754;28;20039;-16
2022/05/15 04:38:54;;;;;;;1.02;0.35;;;21.40;55.50;;;;;;4972596;28;20057;-16
2022/05/15 04:41:19;;;;;;;0.47;0.47;;;21.40;55.50;;;;;;4973629;28;20046;-16
2022/05/15 04:43:45;;;;;;;0.30;0.30;;;21.40;55.50;;;;;;4975491;28;20047;-16
2022/05/15 04:46:10;;;;;;;0.43;0.40;;;21.40;55.40;;;;;;4975468;28;20039;-16
2022/05/15 04:48:36;;;;;;;0.73;0.50;;;21.40;55.50;;;;;;4968915;28;20041;-16
2022/05/15 04:51:02;;;;;;;0.38;0.38;;;21.40;55.50;;;;;;4973629;28;20054;-16
2022/05/15 04:53:28;;;;;;;0.45;0.40;;;21.40;55.40;;;;;;4975795;28;20050;-16
2022/05/15 04:55:54;;;;;;;0.20;0.20;;;21.40;55.50;;;;;;4975651;28;20043;-16
2022/05/15 04:58:20;;;;;;;0.40;0.40;;;21.40;55.50;;;;;;4974495;28;20538;-17
2022/05/15 05:00:45;;;;;;;0.40;0.40;;;21.40;55.50;;;;;;4976380;28;20042;-16
2022/05/15 05:03:11;;;;;;;0.30;0.30;;;21.40;55.40;;;;;;4976441;28;20050;-16
2022/05/15 05:05:37;;;;;;;0.40;0.40;;;21.40;55.50;;;;;;4973606;28;20054;-16
2022/05/15 05:08:02;;;;;;;0.30;0.30;;;21.40;55.50;;;;;;4974871;28;20035;-16
2022/05/15 05:10:28;;;;;;;0.50;0.22;;;21.40;55.50;;;;;;4973553;28;20043;-16
2022/05/15 05:12:54;;;;;;;0.30;0.30;;;21.40;55.50;;;;;;4976324;28;20050;-16
2022/05/15 05:15:19;;;;;;;0.35;0.35;;;21.40;55.50;;;;;;4974389;28;20031;-18
2022/05/15 05:17:45;;;;;;;0.40;0.40;;;21.40;55.50;;;;;;4958607;28;20386;-16
2022/05/15 05:20:12;;;;;;;0.52;0.40;;;21.40;55.50;;;;;;4957007;28;20134;-16
2022/05/15 05:22:37;;;;;;;0.40;0.40;;;21.40;55.50;;;;;;4955919;28;20480;-16
2022/05/15 05:25:03;;;;;;;0.50;0.30;;;21.40;55.50;;;;;;4958825;28;20062;-15
2022/05/15 05:27:29;;;;;;;0.38;0.38;;;21.40;55.60;;;;;;4975321;28;20055;-16
2022/05/15 05:29:54;;;;;;;0.43;0.30;;;21.40;55.50;;;;;;4970708;28;20438;-16
2022/05/15 05:32:20;;;;;;;0.60;0.40;;;21.40;55.50;;;;;;4956348;28;20042;-17
2022/05/15 05:34:45;;;;;;;0.40;0.40;;;21.40;55.40;;;;;;4957213;28;20047;-15
2022/05/15 05:37:14;;;;;;;0.40;0.40;;;21.40;55.50;;;;;;4956836;28;20046;-16
2022/05/15 05:39:39;;;;;;;0.30;0.30;;;21.40;55.50;;;;;;4959650;28;20043;-15
2022/05/15 05:42:05;;;;;;;0.30;0.30;;;21.40;55.50;;;;;;4960116;28;20514;-15
2022/05/15 05:44:31;;;;;;;0.40;0.40;;;21.40;55.50;;;;;;4976793;28;20073;-16
2022/05/15 05:46:57;;;;;;;0.35;0.30;;;21.40;55.50;;;;;;4979476;28;20039;-15
2022/05/15 05:49:22;;;;;;;0.43;0.30;;;21.40;55.50;;;;;;4978731;28;20050;-17
2022/05/15 05:51:48;;;;;;;0.30;0.30;;;21.40;55.60;;;;;;4978618;28;20053;-16
2022/05/15 05:54:14;;;;;;;0.30;0.30;;;21.40;55.70;;;;;;4979362;28;20046;-16
2022/05/15 05:56:39;;;;;;;0.30;0.30;;;21.40;55.60;;;;;;4961162;28;20046;-16
2022/05/15 05:59:05;;;;;;;0.98;0.63;;;21.30;55.60;;;;;;4978027;28;20416;-16
2022/05/15 06:01:30;;;;;;;0.63;0.40;;;21.30;55.60;;;;;;4962218;28;20049;-15
2022/05/15 06:06:40;;;;;;;;;;;21.40;55.60;;;;;;4978913;28;20565;-16
2022/05/15 06:09:06;;;;;;;0.40;0.40;;;21.30;55.60;;;;;;4966327;28;20327;-16
2022/05/15 06:11:31;;;;;;;0.30;0.30;;;21.40;55.60;;;;;;4970255;28;20113;-16
2022/05/15 06:13:57;;;;;;;0.50;0.50;;;21.30;55.60;;;;;;4979018;28;20046;-17
2022/05/15 06:16:23;;;;;;;0.30;0.30;;;21.30;55.60;;;;;;4977593;28;20055;-15
2022/05/15 06:18:48;;;;;;;0.40;0.40;;;21.40;55.60;;;;;;4977902;28;20093;-16
2022/05/15 06:21:14;;;;;;;0.40;0.40;;;21.40;55.60;;;;;;4978982;28;20503;-15
2022/05/15 06:23:39;;;;;;;0.43;0.43;;;21.30;55.60;;;;;;4631611;28;10001082;-15
2022/05/15 06:26:05;;;;;;;1.75;0.30;;;21.30;55.70;;;;;;4975163;28;20244;-16
2022/05/15 06:28:33;;;;;;;0.28;0.28;;;21.30;56.10;;;;;;4983933;28;20046;-15
2022/05/15 06:30:58;;;;;;;0.50;0.40;;;21.30;55.70;;;;;;4978462;28;20035;-16
2022/05/15 06:33:24;;;;;;;0.70;0.35;;;21.30;56.00;;;;;;4984372;28;20053;-17
2022/05/15 06:35:49;;;;;;;0.45;0.40;;;21.30;56.10;;;;;;4978117;28;20038;-15
2022/05/15 06:38:15;;;;;;;0.50;0.50;;;21.30;56.10;;;;;;4971895;28;20046;-16
2022/05/15 06:40:41;;;;;;;0.30;0.30;;;21.30;56.10;;;;;;4988887;28;20074;-15
2022/05/15 06:43:06;;;;;;;3.80;0.55;;;21.30;56.10;;;;;;4974439;28;20055;-15
2022/05/15 06:45:32;;;;;;;0.45;0.43;;;21.30;56.10;;;;;;4974363;28;20815;-15
2022/05/15 06:47:57;;;;;;;0.30;0.30;;;21.30;56.20;;;;;;4974870;28;20039;-15
2022/05/15 06:50:24;;;;;;;0.65;0.65;;;21.30;56.20;;;;;;4974106;28;20078;-15
2022/05/15 06:52:49;;;;;;;0.40;0.40;;;21.30;56.20;;;;;;4964817;28;20133;-15
2022/05/15 06:55:17;;;;;;;2.25;0.40;;;21.30;56.30;;;;;;4975681;28;20071;-15
2022/05/15 06:57:43;;;;;;;0.57;0.40;;;21.30;56.50;;;;;;4984137;28;20042;-15
2022/05/15 07:00:17;;;;;;;0.63;0.45;;;21.30;56.70;;;;;;4974272;28;20050;-15
2022/05/15 07:02:42;;;;;;;;;;;21.30;56.60;;;;;;4974508;28;20139;-15
2022/05/15 07:05:09;;;;;;;0.40;0.40;;;21.30;56.60;;;;;;4974705;28;19961;-15
2022/05/15 07:07:35;;;;;;;1.02;0.50;;;21.30;56.90;;;;;;4970770;28;20127;-15
2022/05/15 07:10:00;;;;;;;0.50;0.50;;;21.20;57.00;;;;;;4972617;28;20055;-15
2022/05/15 07:12:26;;;;;;;2.30;0.88;;;21.30;56.80;;;;;;4972661;28;20042;-19
2022/05/15 07:14:51;;;;;;;0.60;0.50;;;21.30;56.90;;;;;;4971996;28;20039;-14
2022/05/15 07:17:17;;;;;;;0.80;0.60;;;21.30;57.20;;;;;;4970549;28;20083;-15
2022/05/15 07:19:43;;;;;;;1.83;0.50;;;21.30;57.30;;;;;;4972119;28;20093;-16
2022/05/15 07:22:09;;;;;;;0.68;0.60;;;21.40;57.40;;;;;;4972840;28;20141;-14
2022/05/15 07:24:38;;;;;;;1.27;0.40;;;21.40;57.50;;;;;;4971989;28;20041;-15
2022/05/15 07:27:05;;;;;;;0.70;0.40;;;21.40;57.40;;;;;;4970602;28;20055;-17
2022/05/15 07:29:30;;;;;;;0.40;0.40;;;21.30;57.60;;;;;;4970788;28;20046;-15
2022/05/15 07:31:57;;;;;;;0.68;0.68;;;21.30;57.60;;;;;;4970401;28;20054;-15
2022/05/15 07:34:23;;;;;;;0.55;0.55;;;21.30;57.60;;;;;;4968983;28;20387;-15
2022/05/15 07:36:50;;;;;;;0.63;0.63;;;21.30;57.60;;;;;;4970851;28;20050;-15
2022/05/15 07:39:17;;;;;;;1.33;0.73;;;21.30;57.80;;;;;;4970724;28;20054;-17
2022/05/15 07:41:43;;;;;;;0.50;0.50;;;21.30;57.50;;;;;;4970544;28;20041;-15
2022/05/15 07:44:09;;;;;;;0.85;0.50;;;21.40;57.60;;;;;;4972567;28;20043;-15
2022/05/15 07:46:34;;;;;;;1.48;1.25;;;21.40;58.10;;;;;;4971112;28;20076;-15
2022/05/15 07:49:00;;;;;;;1.10;0.60;;;21.40;58.10;;;;;;4969742;28;20078;-15
2022/05/15 07:51:25;;;;;;;0.80;0.77;;;21.30;57.90;;;;;;4968910;28;20046;-15
2022/05/15 07:53:51;;;;;;;0.70;0.70;;;21.40;58.40;;;;;;4967505;28;20061;-15
2022/05/15 07:56:17;;;;;;;0.55;0.55;;;21.40;58.60;;;;;;4972194;28;20416;-15
2022/05/15 07:58:43;;;;;;;0.50;0.50;;;21.40;58.50;;;;;;4964949;28;20043;-15
2022/05/15 08:01:08;;;;;;;0.50;0.50;;;21.40;58.00;;;;;;4970801;28;21385;-15
2022/05/15 08:03:42;;;;;;;0.70;0.50;;;21.40;58.90;;;;;;4969358;28;20130;-14
2022/05/15 08:08:52;;;;;;;0.55;0.55;;;21.50;58.40;;;;;;4968200;28;19925;-15
2022/05/15 08:11:19;;;;;;;0.80;0.80;;;21.50;59.00;;;;;;4972828;28;20047;-15
2022/05/15 08:13:44;;;;;;;1.17;0.55;;;21.50;59.10;;;;;;4971933;28;20046;-15
2022/05/15 08:16:11;;;;;;;0.68;0.65;;;21.50;58.70;;;;;;4970670;28;20051;-16
2022/05/15 08:24:05;;;;;;;0.57;0.57;;;21.50;59.00;;;;;;4951405;28;20003;-15
2022/05/15 08:26:31;;;;;;;0.70;0.65;;;21.50;58.80;;;;;;4960048;28;20134;-15
2022/05/15 08:28:57;;;;;;;1.58;0.70;;;21.50;58.60;;;;;;4969278;28;20133;-15
2022/05/15 08:31:24;;;;;;;1.05;0.70;;;21.40;58.90;;;;;;4964904;28;20105;-15
2022/05/15 08:33:49;;;;;;;0.50;0.50;;;21.40;58.60;;;;;;4971240;28;20046;-16
2022/05/15 08:36:15;;;;;;;0.60;0.60;;;21.40;58.50;;;;;;4976912;28;20046;-15
2022/05/15 08:38:41;;;;;;;1.63;0.90;;;21.40;58.50;;;;;;4971504;28;20046;-15
2022/05/15 08:41:15;;;;;;;0.68;0.60;;;21.50;58.50;;;;;;4972208;28;20047;-14
2022/05/15 08:43:43;;;;;;;0.47;0.47;;;21.50;59.10;;;;;;4966861;28;20042;-15
2022/05/15 08:46:26;;;;;;;0.70;0.70;;;21.40;58.80;;;;;;4969583;28;20043;-15
2022/05/15 08:49:01;;;;;;;2.30;0.88;;;21.50;59.40;;;;;;4968516;28;20047;-15
2022/05/15 08:51:27;;;;;;;0.50;0.50;;;21.50;58.60;;;;;;4954363;28;20105;-15
2022/05/15 08:53:53;;;;;;;0.82;0.82;;;21.50;58.80;;;;;;4968078;28;20520;-16
2022/05/15 08:56:18;;;;;;;0.73;0.68;;;21.50;59.10;;;;;;4970253;28;21027;-15
2022/05/15 08:58:49;;;;;;;0.70;0.70;;;21.50;59.00;;;;;;4969189;28;20047;-15
2022/05/15 09:01:20;;;;;;;0.50;0.50;;;21.50;58.80;;;;;;4970841;28;20054;-15
2022/05/15 09:03:46;;;;;;;0.77;0.77;;;21.50;58.90;;;;;;4970658;28;20053;-16
2022/05/15 09:06:23;;;;;;;0.63;0.50;;;21.50;59.70;;;;;;4972331;28;20069;-15
2022/05/15 09:08:57;;;;;;;0.80;0.70;;;21.50;59.50;;;;;;4970861;28;20053;-14
2022/05/15 09:11:38;;;;;;;0.93;0.57;;;21.50;58.60;;;;;;4975679;28;20684;-15
2022/05/15 09:14:09;;;;;;;1.10;0.82;;;21.60;58.90;;;;;;4973757;28;20043;-15
2022/05/15 09:16:35;;;;;;;0.70;0.70;;;21.60;58.70;;;;;;4971749;28;20051;-16
2022/05/15 09:19:02;;;;;;;0.60;0.60;;;21.60;58.50;;;;;;4974259;28;20043;-15
2022/05/15 09:21:28;;;;;;;0.88;0.65;;;21.60;58.60;;;;;;4975376;28;20054;-15
2022/05/15 09:23:54;;;;;;;0.70;0.65;;;21.60;58.10;;;;;;4972141;28;20767;-15
2022/05/15 09:26:28;;;;;;;0.88;0.63;;;21.60;58.10;;;;;;4968429;28;20536;-15
2022/05/15 09:29:01;;;;;;;1.23;0.60;;;21.60;58.50;;;;;;4972171;28;20089;-15
2022/05/15 09:31:28;;;;;;;0.70;0.70;;;21.70;58.40;;;;;;4976043;28;20558;-15
2022/05/15 09:33:58;;;;;;;0.70;0.70;;;21.70;58.30;;;;;;4974804;28;20034;-16
2022/05/15 09:36:28;;;;;;;0.73;0.73;;;21.70;58.60;;;;;;4972271;28;20046;-15
2022/05/15 09:39:16;;;;;;;0.98;0.73;;;21.70;58.30;;;;;;4974558;28;20072;-16
2022/05/15 09:44:30;;;;;;;0.63;0.63;;;21.70;58.30;;;;;;4975579;28;20053;-15
2022/05/15 09:47:19;;;;;;;0.75;0.50;;;21.80;58.30;;;;;;4975019;28;20055;-15
2022/05/15 09:49:45;;;;;;;0.88;0.65;;;21.70;58.20;;;;;;4963778;28;20042;-14
2022/05/15 09:52:14;;;;;;;1.10;0.80;;;21.70;58.20;;;;;;4977470;28;20051;-15
2022/05/15 09:54:43;;;;;;;0.57;0.55;;;21.80;58.20;;;;;;4958631;28;20051;-16
2022/05/15 09:57:23;;;;;;;0.98;0.98;;;21.70;58.20;;;;;;4978159;28;20069;-15
2022/05/15 10:00:00;;;;;;;0.60;0.60;;;21.70;58.30;;;;;;4976066;28;20043;-15
2022/05/15 10:02:47;;;;;;;0.80;0.80;;;21.80;58.30;;;;;;4978891;28;20411;-15
2022/05/15 10:05:16;;;;;;;0.70;0.70;;;21.80;58.20;;;;;;4977021;28;20053;-15
2022/05/15 10:07:48;;;;;;;0.73;0.68;;;21.80;58.20;;;;;;4977047;28;20046;-15
2022/05/15 10:10:16;;;;;;;0.82;0.75;;;21.80;58.30;;;;;;4975743;28;20106;-14
2022/05/15 10:12:42;;;;;;;6.68;0.70;;;21.80;58.20;;;;;;4999108;28;20126;-15
2022/05/15 10:15:08;;;;;;;0.50;0.50;;;21.80;58.40;;;;;;4970855;28;20087;-14
2022/05/15 10:17:34;;;;;;;0.80;0.80;;;21.80;58.30;;;;;;4972197;28;20051;-15
2022/05/15 10:20:04;;;;;;;0.90;0.70;;;21.80;58.30;;;;;;4977129;28;20399;-15
2022/05/15 10:23:11;;;;;;;0.60;0.60;;;21.80;58.30;;;;;;4978665;28;20058;-16
2022/05/15 10:25:42;;;;;;;0.57;0.55;;;21.80;58.20;;;;;;4966328;28;20073;-15
2022/05/15 10:28:35;;;;;;;0.68;0.55;;;21.80;58.30;;;;;;4978037;28;20038;-15
2022/05/15 10:31:10;;;;;;;0.50;0.50;;;21.80;58.30;;;;;;4976731;28;20492;-15
2022/05/15 10:33:41;;;;;;;0.73;0.60;;;21.80;58.30;;;;;;4978425;28;20047;-15
2022/05/15 10:36:09;;;;;;;0.65;0.65;;;21.80;58.30;;;;;;4968788;28;20051;-15
2022/05/15 10:38:53;;;;;;;1.10;0.70;;;21.90;58.20;;;;;;4976129;28;20055;-15
2022/05/15 10:41:30;;;;;;;2.10;0.70;;;21.80;58.40;;;;;;4977707;28;20050;-15
2022/05/15 10:44:42;;;;;;;0.70;0.70;;;21.80;58.40;;;;;;4963179;28;20047;-15
2022/05/15 10:47:16;;;;;;;0.88;0.60;;;21.80;58.40;;;;;;4962440;28;20485;-15
2022/05/15 10:49:59;;;;;;;0.68;0.68;;;21.90;58.40;;;;;;4976038;28;20039;-15
2022/05/15 10:52:56;;;;;;;0.70;0.70;;;21.90;58.40;;;;;;4977656;28;20051;-15
2022/05/15 10:58:40;;;;;;;0.65;0.65;;;21.90;58.30;;;;;;4963861;28;20523;-15
2022/05/15 11:01:28;;;;;;;0.77;0.77;;;21.90;58.40;;;;;;4957305;28;20047;-15
2022/05/15 11:04:08;;;;;;;0.75;0.55;;;21.90;58.40;;;;;;4968191;28;20035;-15
2022/05/15 11:06:57;;;;;;;0.65;0.60;;;21.90;58.40;;;;;;4976455;28;20109;-15
2022/05/15 11:09:37;;;;;;;0.70;0.70;;;21.90;58.40;;;;;;4978278;28;20097;-15
2022/05/15 11:12:28;;;;;;;1.25;0.77;;;21.90;58.50;;;;;;4974294;28;20061;-16
2022/05/15 11:14:57;;;;;;;0.40;0.40;;;21.90;58.30;;;;;;4960642;28;20038;-15
2022/05/15 11:17:34;;;;;;;0.73;0.60;;;22.00;58.40;;;;;;4974446;28;20500;-15
2022/05/15 11:20:10;;;;;;;0.52;0.52;;;22.00;58.50;;;;;;4975755;28;20078;-15
2022/05/15 11:22:43;;;;;;;0.70;0.70;;;22.00;58.40;;;;;;4972385;28;20416;-15
2022/05/15 11:25:22;;;;;;;0.60;0.60;;;22.00;58.50;;;;;;4975031;28;20077;-15
2022/05/15 11:27:49;;;;;;;0.70;0.70;;;22.00;58.40;;;;;;4974933;28;20049;-16
2022/05/15 11:30:27;;;;;;;0.50;0.50;;;22.00;58.40;;;;;;4976497;28;20109;-16
2022/05/15 11:32:52;;;;;;;0.50;0.50;;;22.00;58.50;;;;;;4610897;28;10001014;-16
2022/05/15 11:35:18;;;;;;;0.60;0.60;;;22.00;58.40;;;;;;4972796;28;20097;-16
2022/05/15 11:37:57;;;;;;;0.70;0.70;;;22.00;58.40;;;;;;4972650;28;20042;-16
2022/05/15 11:40:46;;;;;;;1.00;0.70;;;22.00;58.30;;;;;;4972994;28;20055;-16
2022/05/15 11:43:28;;;;;;;0.82;0.82;;;22.00;58.00;;;;;;4972677;28;20470;-16
2022/05/15 11:46:01;;;;;;;0.73;0.70;;;22.00;58.40;;;;;;4970530;28;20069;-16
2022/05/15 11:48:31;;;;;;;0.77;0.68;;;22.00;58.40;;;;;;4973828;28;20071;-16
2022/05/15 11:50:59;;;;;;;1.17;0.93;;;22.00;58.70;;;;;;4964883;28;20057;-16
2022/05/15 11:53:49;;;;;;;0.80;0.80;;;22.00;58.80;;;;;;4973752;28;20043;-17
2022/05/15 11:56:40;;;;;;;0.82;0.82;;;22.00;58.60;;;;;;4955748;28;20042;-16
2022/05/15 11:59:54;;;;;;;0.68;0.68;;;22.00;58.90;;;;;;4977484;28;20141;-16
2022/05/15 12:02:20;;;;;;;0.70;0.70;;;22.00;59.20;;;;;;4960148;28;20053;-16
2022/05/15 12:04:46;;;;;;;0.98;0.60;;;22.10;59.00;;;;;;4972699;28;20278;-17
2022/05/15 12:07:14;;;;;;;0.65;0.65;;;22.10;59.00;;;;;;4972605;28;20050;-16
2022/05/15 12:09:40;;;;;;;0.73;0.73;;;22.20;59.50;;;;;;4972786;28;20058;-16
2022/05/15 12:12:23;;;;;;;0.70;0.70;;;22.20;59.50;;;;;;4972145;28;20512;-16
2022/05/15 12:15:28;;;;;;;0.98;0.75;;;22.20;59.60;;;;;;4972942;28;20062;-17
2022/05/15 12:18:01;;;;;;;0.80;0.70;;;22.20;59.60;;;;;;4955727;28;20109;-17
2022/05/15 12:20:30;;;;;;;0.73;0.73;;;22.20;59.80;;;;;;4984544;28;20049;-18
2022/05/15 12:22:56;;;;;;;0.70;0.70;;;22.20;59.90;;;;;;4968782;28;20062;-16
2022/05/15 12:25:25;;;;;;;1.00;0.90;;;22.20;60.00;;;;;;4971145;28;20057;-17
2022/05/15 12:28:50;;;;;;;1.50;1.40;;;22.20;60.00;;;;;;4970353;28;20824;-17
2022/05/15 12:30:41;;;;;;;0.70;0.70;;;22.20;60.30;;;;;;4970366;28;20046;-16
2022/05/15 12:33:07;;;;;;;0.60;0.60;;;22.20;60.10;;;;;;4969677;28;20051;-15
2022/05/15 12:35:38;;;;;;;0.60;0.60;;;22.20;60.10;;;;;;4971184;28;20053;-15
2022/05/15 12:38:08;;;;;;;0.82;0.80;;;22.30;60.20;;;;;;4972294;28;20117;-15
2022/05/15 12:40:37;;;;;;;0.70;0.70;;;22.30;60.00;;;;;;4973779;28;20043;-15
2022/05/15 12:43:03;;;;;;;0.93;0.93;;;22.30;60.50;;;;;;4970048;28;20125;-15
2022/05/15 12:45:32;;;;;;;0.95;0.95;;;22.20;60.00;;;;;;4975179;28;20073;-15
2022/05/15 12:48:06;;;;;;;1.05;0.93;;;22.30;60.20;;;;;;4978005;28;20081;-15
2022/05/15 12:50:32;;;;;;;1.13;0.80;;;22.30;59.70;;;;;;4973935;28;20043;-18
2022/05/15 12:52:59;;;;;;;0.77;0.77;;;22.30;60.10;;;;;;4979408;28;20089;-17
2022/05/15 12:55:42;;;;;;;1.55;0.80;;;22.30;59.80;;;;;;4979656;28;20097;-17
2022/05/15 12:58:08;;;;;;;1.25;0.90;;;22.30;60.00;;;;;;4969918;28;20522;-17
2022/05/15 13:00:42;;;;;;;0.90;0.90;;;22.30;60.00;;;;;;4980068;28;20047;-17
2022/05/15 13:03:11;;;;;;;0.70;0.70;;;22.30;60.50;;;;;;4977355;28;20047;-17
2022/05/15 13:05:39;;;;;;;1.00;0.73;;;22.40;60.60;;;;;;4994355;28;20049;-17
2022/05/15 13:08:06;;;;;;;0.80;0.80;;;22.40;60.60;;;;;;4977941;28;20031;-17
2022/05/15 13:10:33;;;;;;;0.90;0.82;;;22.40;60.90;;;;;;4979117;28;20129;-16
2022/05/15 13:13:12;;;;;;;1.00;1.00;;;22.30;60.50;;;;;;4978954;28;20122;-16
2022/05/15 13:15:39;;;;;;;1.30;1.00;;;22.40;60.60;;;;;;4974300;28;20035;-16
2022/05/15 13:18:06;;;;;;;0.85;0.85;;;22.40;60.50;;;;;;4976780;28;20046;-17